Time;durP1;ratioP1;P1;durP2;ratioP2;P2;SDS_P1;SDS_P2;PMS_P1;PMS_P2;Temp;Humidity;BMP_temperature;BMP_pressure;BME280_temperature;BME280_humidity;BME280_pressure;Samples;Min_cycle;Max_cycle;Signal;HPM_P1;HPM_P2
2023/02/23 00:00:21;;;;;;;941.50;839.93;;;9.00;99.90;;;;;;5056012;28;20841;-80
2023/02/23 00:02:49;;;;;;;945.77;844.80;;;9.00;99.90;;;;;;5055490;28;21001;-80
2023/02/23 00:05:16;;;;;;;944.63;844.10;;;8.90;99.90;;;;;;5055712;28;20501;-80
2023/02/23 00:07:45;;;;;;;912.53;811.70;;;9.00;99.90;;;;;;5046611;28;20499;-82
2023/02/23 00:10:14;;;;;;;914.07;814.00;;;8.90;99.90;;;;;;5035588;28;20456;-79
2023/02/23 00:12:41;;;;;;;919.73;819.03;;;8.90;99.90;;;;;;5054722;28;20467;-79
2023/02/23 00:15:09;;;;;;;921.30;820.00;;;8.90;99.90;;;;;;5055392;28;20484;-79
2023/02/23 00:17:36;;;;;;;915.07;814.40;;;8.90;99.90;;;;;;5055849;28;20447;-81
2023/02/23 00:20:10;;;;;;;920.87;818.93;;;8.90;99.90;;;;;;5055618;28;21049;-80
2023/02/23 00:22:38;;;;;;;917.63;811.50;;;8.90;99.90;;;;;;5057262;28;20880;-80
2023/02/23 00:25:10;;;;;;;911.63;810.83;;;8.90;99.90;;;;;;5059549;28;20879;-80
2023/02/23 00:27:37;;;;;;;919.07;815.20;;;8.90;99.90;;;;;;5059758;28;20447;-80
2023/02/23 00:30:07;;;;;;;920.00;819.57;;;8.90;99.90;;;;;;5059731;28;20864;-78
2023/02/23 00:32:33;;;;;;;927.37;827.47;;;8.90;99.90;;;;;;5059493;28;20483;-79
2023/02/23 00:35:00;;;;;;;940.20;839.03;;;8.90;99.90;;;;;;5059674;28;20475;-81
2023/02/23 00:37:27;;;;;;;942.10;841.37;;;8.80;99.90;;;;;;5059109;28;20455;-80
2023/02/23 00:39:55;;;;;;;941.80;840.50;;;8.90;99.90;;;;;;5059642;28;20451;-80
2023/02/23 00:42:31;;;;;;;942.67;841.60;;;8.90;99.90;;;;;;5059111;28;20451;-79
2023/02/23 00:45:04;;;;;;;942.37;840.63;;;8.90;99.90;;;;;;5059073;28;20501;-80
2023/02/23 00:47:31;;;;;;;945.80;844.03;;;8.90;99.90;;;;;;5059218;28;20462;-80
2023/02/23 00:49:57;;;;;;;917.57;815.80;;;8.90;99.90;;;;;;5059264;28;20455;-80
2023/02/23 00:52:24;;;;;;;920.90;803.80;;;8.80;99.90;;;;;;5059451;28;20455;-80
2023/02/23 00:54:51;;;;;;;915.47;809.93;;;8.90;99.90;;;;;;5059241;28;20482;-81
2023/02/23 00:57:18;;;;;;;919.23;817.33;;;8.90;99.90;;;;;;5058881;28;20455;-80
2023/02/23 00:59:46;;;;;;;922.63;809.10;;;8.90;99.90;;;;;;5060034;28;20447;-81
2023/02/23 01:02:12;;;;;;;913.17;809.10;;;8.90;99.90;;;;;;5060578;28;20850;-79
2023/02/23 01:04:39;;;;;;;913.07;807.90;;;8.90;99.90;;;;;;5061510;28;20452;-81
2023/02/23 01:07:06;;;;;;;894.17;790.97;;;8.90;99.90;;;;;;5060297;28;20459;-80
2023/02/23 01:09:33;;;;;;;892.70;793.13;;;8.90;99.90;;;;;;5060953;28;20455;-81
2023/02/23 01:12:00;;;;;;;915.13;815.67;;;8.90;99.90;;;;;;5060600;28;20451;-80
2023/02/23 01:14:28;;;;;;;929.20;829.60;;;8.90;99.90;;;;;;5059312;28;20475;-81
2023/02/23 01:16:56;;;;;;;933.27;831.77;;;8.90;99.90;;;;;;5060375;28;20451;-81
2023/02/23 01:19:22;;;;;;;942.13;841.67;;;8.80;99.90;;;;;;5059950;28;20451;-81
2023/02/23 01:21:49;;;;;;;924.03;823.47;;;8.80;99.90;;;;;;5060131;28;20452;-83
2023/02/23 01:24:16;;;;;;;925.53;825.00;;;8.80;99.90;;;;;;5060845;28;21162;-81
2023/02/23 01:26:45;;;;;;;931.17;830.87;;;8.80;99.90;;;;;;5061214;28;20453;-81
2023/02/23 01:29:13;;;;;;;935.87;834.73;;;8.80;99.90;;;;;;5060680;28;20458;-81
2023/02/23 01:31:42;;;;;;;943.47;841.90;;;8.80;99.90;;;;;;5059708;28;20455;-81
2023/02/23 01:34:12;;;;;;;952.47;850.30;;;8.80;99.90;;;;;;5058497;28;20475;-81
2023/02/23 01:36:42;;;;;;;982.13;880.57;;;8.80;99.90;;;;;;5059705;28;20451;-82
2023/02/23 01:39:11;;;;;;;992.73;891.47;;;8.80;99.90;;;;;;5059779;28;20451;-81
2023/02/23 01:41:41;;;;;;;1012.40;911.70;;;8.80;99.90;;;;;;5059866;28;20451;-81
2023/02/23 01:44:29;;;;;;;1000.13;896.80;;;8.80;99.90;;;;;;5058634;28;20471;-81
2023/02/23 01:46:57;;;;;;;987.63;884.97;;;8.80;99.90;;;;;;5059053;28;20473;-81
2023/02/23 01:49:29;;;;;;;1003.90;898.70;;;8.80;99.90;;;;;;5059280;28;20953;-81
2023/02/23 01:52:01;;;;;;;979.77;874.97;;;8.80;99.90;;;;;;5059279;28;20456;-81
2023/02/23 01:54:31;;;;;;;978.23;871.80;;;8.80;99.90;;;;;;5058600;28;20475;-80
2023/02/23 01:57:01;;;;;;;973.50;868.10;;;8.80;99.90;;;;;;5057585;28;20451;-80
2023/02/23 01:59:33;;;;;;;967.33;862.27;;;8.80;99.90;;;;;;5057562;28;20910;-80
2023/02/23 02:02:03;;;;;;;960.87;853.90;;;8.80;99.90;;;;;;5058433;28;20439;-80
2023/02/23 02:04:42;;;;;;;960.60;853.07;;;8.80;99.90;;;;;;5057740;28;20546;-80
2023/02/23 02:07:09;;;;;;;958.03;841.10;;;8.80;99.90;;;;;;5057094;28;20443;-80
2023/02/23 02:09:38;;;;;;;964.57;840.33;;;8.90;99.90;;;;;;5057485;28;20455;-81
2023/02/23 02:12:07;;;;;;;953.43;841.53;;;8.70;99.90;;;;;;5057665;28;20470;-80
2023/02/23 02:14:35;;;;;;;947.67;809.30;;;8.80;99.90;;;;;;5057020;28;20475;-80
2023/02/23 02:17:28;;;;;;;943.60;805.00;;;8.80;99.90;;;;;;5056839;28;21049;-81
2023/02/23 02:20:31;;;;;;;949.43;793.37;;;8.80;99.90;;;;;;5057120;28;20451;-80
2023/02/23 02:23:40;;;;;;;953.73;780.57;;;8.70;99.90;;;;;;5056766;28;21031;-80
2023/02/23 02:26:19;;;;;;;956.67;785.93;;;8.70;99.90;;;;;;5056701;28;20525;-80
2023/02/23 02:29:21;;;;;;;973.13;786.87;;;8.70;99.90;;;;;;5057054;28;20891;-80
2023/02/23 02:32:29;;;;;;;966.70;790.43;;;8.80;99.90;;;;;;5005710;28;20453;-80
2023/02/23 02:35:25;;;;;;;970.17;803.40;;;8.70;99.90;;;;;;4995454;28;20478;-79
2023/02/23 02:38:04;;;;;;;957.20;813.50;;;8.80;99.90;;;;;;4968782;28;20450;-81
2023/02/23 02:40:37;;;;;;;946.00;819.33;;;8.70;99.90;;;;;;5042200;28;20447;-80
2023/02/23 02:43:11;;;;;;;955.53;839.50;;;8.70;99.90;;;;;;5055336;28;20482;-80
2023/02/23 02:45:54;;;;;;;947.60;843.50;;;8.80;99.90;;;;;;5053445;28;20449;-80
2023/02/23 02:48:29;;;;;;;957.77;842.27;;;8.70;99.90;;;;;;5056400;28;20832;-78
2023/02/23 02:51:04;;;;;;;966.37;834.27;;;8.70;99.90;;;;;;5056473;28;20466;-80
2023/02/23 02:53:41;;;;;;;948.70;830.77;;;8.70;99.90;;;;;;5055848;28;20475;-80
2023/02/23 02:56:08;;;;;;;950.57;833.17;;;8.70;99.90;;;;;;5056101;28;20474;-82
2023/02/23 02:58:37;;;;;;;950.33;844.83;;;8.70;99.90;;;;;;5057015;28;20452;-80
2023/02/23 04:19:52;;;;;;;961.33;754.70;;;8.50;99.90;;;;;;5060584;28;20451;-81
2023/02/23 04:22:18;;;;;;;983.83;754.53;;;8.40;99.90;;;;;;5058893;28;20457;-81
2023/02/23 04:24:45;;;;;;;972.80;765.50;;;8.50;99.90;;;;;;5058518;28;20443;-80
2023/02/23 04:27:12;;;;;;;989.77;769.83;;;8.50;99.90;;;;;;5059490;28;20938;-80
2023/02/23 04:29:39;;;;;;;993.10;767.27;;;8.40;99.90;;;;;;5059094;28;20455;-80
2023/02/23 04:32:06;;;;;;;999.40;782.20;;;8.40;99.90;;;;;;5039250;28;20456;-82
2023/02/23 04:34:34;;;;;;;993.50;764.13;;;8.40;99.90;;;;;;5056013;28;20704;-81
2023/02/23 04:37:01;;;;;;;983.60;755.93;;;8.40;99.90;;;;;;5060348;28;20452;-80
2023/02/23 04:39:28;;;;;;;1009.40;758.13;;;8.40;99.90;;;;;;5060059;28;20455;-80
2023/02/23 04:41:55;;;;;;;1023.47;766.97;;;8.40;99.90;;;;;;5059718;28;20455;-81
2023/02/23 04:44:22;;;;;;;985.97;755.60;;;8.40;99.90;;;;;;5059281;28;20479;-80
2023/02/23 04:46:48;;;;;;;995.17;761.63;;;8.30;99.90;;;;;;5059875;28;20451;-81
2023/02/23 04:49:15;;;;;;;992.40;790.90;;;8.40;99.90;;;;;;5059854;28;20454;-82
2023/02/23 04:51:43;;;;;;;1005.37;796.30;;;8.30;99.90;;;;;;5059947;28;20462;-81
2023/02/23 04:54:10;;;;;;;1016.93;778.70;;;8.30;99.90;;;;;;5059261;28;20550;-80
2023/02/23 04:56:38;;;;;;;984.13;789.77;;;8.30;99.90;;;;;;5059581;28;20486;-80
2023/02/23 04:59:05;;;;;;;977.83;776.47;;;8.30;99.90;;;;;;5058828;28;20454;-81
2023/02/23 05:01:31;;;;;;;980.50;756.33;;;8.30;99.90;;;;;;5058628;28;20447;-82
2023/02/23 05:03:59;;;;;;;1011.80;767.60;;;8.30;99.90;;;;;;5040985;28;20476;-81
2023/02/23 05:06:26;;;;;;;1021.20;774.50;;;8.30;99.90;;;;;;5039286;28;20456;-80
2023/02/23 05:08:54;;;;;;;1006.03;760.57;;;8.30;99.90;;;;;;5057147;28;20844;-80
2023/02/23 05:11:20;;;;;;;1020.63;772.30;;;8.20;99.90;;;;;;5056864;28;20454;-80
2023/02/23 05:13:47;;;;;;;1004.23;764.90;;;8.30;99.90;;;;;;5057308;28;20486;-80
2023/02/23 05:16:14;;;;;;;1008.23;761.87;;;8.30;99.90;;;;;;5056169;28;20478;-80
2023/02/23 05:18:41;;;;;;;1020.03;766.30;;;8.30;99.90;;;;;;5057049;28;20451;-80
2023/02/23 05:21:09;;;;;;;1014.70;770.00;;;8.30;99.90;;;;;;5058209;28;20458;-81
2023/02/23 05:23:36;;;;;;;1026.93;778.93;;;8.30;99.90;;;;;;5058523;28;20841;-81
2023/02/23 05:26:07;;;;;;;996.60;770.77;;;8.30;99.90;;;;;;5057469;28;20451;-81
2023/02/23 05:28:35;;;;;;;1006.70;771.93;;;8.30;99.90;;;;;;5057182;28;20456;-80
2023/02/23 05:31:03;;;;;;;984.27;781.27;;;8.30;99.90;;;;;;5057587;28;20458;-80
2023/02/23 05:33:30;;;;;;;1019.73;820.90;;;8.40;99.90;;;;;;5057157;28;20475;-80
2023/02/23 05:35:57;;;;;;;1012.13;801.90;;;8.40;99.90;;;;;;5057196;28;20889;-81
2023/02/23 05:38:24;;;;;;;1038.43;818.33;;;8.40;99.90;;;;;;5057732;28;20459;-81
2023/02/23 05:40:51;;;;;;;997.07;822.67;;;8.40;99.90;;;;;;5057149;28;20972;-80
2023/02/23 05:43:20;;;;;;;1011.20;793.07;;;8.30;99.90;;;;;;5058202;28;20840;-81
2023/02/23 05:45:46;;;;;;;1003.90;784.10;;;8.30;99.90;;;;;;5057543;28;20938;-81
2023/02/23 05:48:13;;;;;;;1034.30;787.93;;;8.30;99.90;;;;;;5057499;28;20444;-81
2023/02/23 05:50:40;;;;;;;1003.40;801.57;;;8.40;99.90;;;;;;5057169;28;20880;-81
2023/02/23 05:53:07;;;;;;;1002.27;783.17;;;8.40;99.90;;;;;;5057304;28;20478;-81
2023/02/23 05:55:35;;;;;;;1027.33;789.83;;;8.30;99.90;;;;;;5057595;28;20483;-81
2023/02/23 05:58:02;;;;;;;1007.40;785.23;;;8.40;99.90;;;;;;5058739;28;20843;-80
2023/02/23 06:00:30;;;;;;;1016.60;786.43;;;8.40;99.90;;;;;;5057955;28;20491;-81
2023/02/23 06:02:57;;;;;;;996.27;799.10;;;8.40;99.90;;;;;;5058313;28;20468;-80
2023/02/23 06:05:23;;;;;;;992.43;803.53;;;8.40;99.90;;;;;;5058350;28;20688;-80
2023/02/23 06:07:50;;;;;;;989.37;815.90;;;8.40;99.90;;;;;;5058695;28;20451;-81
2023/02/23 06:10:17;;;;;;;999.83;807.87;;;8.40;99.90;;;;;;5057191;28;21041;-81
2023/02/23 06:12:44;;;;;;;987.57;811.63;;;8.40;99.90;;;;;;5046291;28;20471;-80
2023/02/23 06:15:11;;;;;;;985.73;810.10;;;8.40;99.90;;;;;;5058908;28;20447;-80
2023/02/23 06:17:39;;;;;;;991.47;807.97;;;8.40;99.90;;;;;;5059724;28;20942;-81
2023/02/23 06:20:07;;;;;;;989.17;818.70;;;8.40;99.90;;;;;;5055681;28;20455;-80
2023/02/23 06:22:34;;;;;;;982.87;810.23;;;8.40;99.90;;;;;;5057429;28;21020;-80
2023/02/23 06:25:03;;;;;;;991.10;802.93;;;8.40;99.90;;;;;;5058273;28;20475;-81
2023/02/23 06:27:32;;;;;;;965.67;768.20;;;8.40;99.90;;;;;;5057864;28;21007;-80
2023/02/23 06:29:59;;;;;;;972.60;779.50;;;8.30;99.90;;;;;;5058539;28;20481;-81
2023/02/23 06:32:26;;;;;;;995.23;803.77;;;8.40;99.90;;;;;;5058097;28;20463;-80
2023/02/23 06:34:54;;;;;;;989.63;811.27;;;8.40;99.90;;;;;;5055765;28;20829;-80
2023/02/23 06:37:21;;;;;;;1030.67;813.10;;;8.30;99.90;;;;;;5055865;28;20471;-80
2023/02/23 06:39:49;;;;;;;979.67;799.83;;;8.30;99.90;;;;;;5056146;28;20463;-80
2023/02/23 06:42:16;;;;;;;965.70;796.03;;;8.40;99.90;;;;;;5054684;28;20473;-81
2023/02/23 06:44:43;;;;;;;1000.53;795.43;;;8.40;99.90;;;;;;5055752;28;20452;-80
2023/02/23 06:47:10;;;;;;;995.20;780.87;;;8.40;99.90;;;;;;5056450;28;20505;-80
2023/02/23 06:49:39;;;;;;;1002.03;788.67;;;8.30;99.90;;;;;;5045163;28;20859;-81
2023/02/23 06:52:07;;;;;;;971.60;786.13;;;8.40;99.90;;;;;;5046379;28;20538;-80
2023/02/23 06:54:38;;;;;;;1007.50;792.90;;;8.40;99.90;;;;;;5055315;28;20452;-80
2023/02/23 06:57:05;;;;;;;1006.37;805.77;;;8.30;99.90;;;;;;5055001;28;20558;-81
2023/02/23 06:59:32;;;;;;;962.80;804.43;;;8.30;99.90;;;;;;5058651;28;20455;-81
2023/02/23 07:02:03;;;;;;;967.90;804.87;;;8.30;99.90;;;;;;5059356;28;20978;-82
2023/02/23 07:04:30;;;;;;;1033.65;834.97;;;8.40;99.90;;;;;;5057865;28;20451;-81
2023/02/23 07:06:57;;;;;;;969.23;809.97;;;8.40;99.90;;;;;;5058375;28;20203;-80
2023/02/23 07:09:25;;;;;;;971.87;807.13;;;8.40;99.90;;;;;;5058943;28;20459;-83
2023/02/23 07:11:52;;;;;;;969.47;814.57;;;8.40;99.90;;;;;;5058616;28;20451;-81
2023/02/23 07:14:18;;;;;;;973.67;822.10;;;8.40;99.90;;;;;;5059242;28;20541;-81
2023/02/23 07:16:45;;;;;;;953.87;808.90;;;8.40;99.90;;;;;;5057724;28;20486;-81
2023/02/23 07:19:12;;;;;;;971.63;827.80;;;8.40;99.90;;;;;;5058714;28;20459;-83
2023/02/23 07:21:38;;;;;;;970.97;820.43;;;8.40;99.90;;;;;;5058463;28;20455;-81
2023/02/23 07:24:06;;;;;;;945.07;821.03;;;8.40;99.90;;;;;;5058712;28;20475;-81
2023/02/23 07:26:34;;;;;;;955.17;809.13;;;8.40;99.90;;;;;;5058455;28;20443;-81
2023/02/23 07:29:02;;;;;;;975.37;804.87;;;8.40;99.90;;;;;;5058084;28;20520;-81
2023/02/23 07:31:29;;;;;;;975.63;794.67;;;8.40;99.90;;;;;;5057307;28;20981;-81
2023/02/23 07:33:56;;;;;;;954.83;804.47;;;8.50;99.90;;;;;;5057477;28;20478;-80
2023/02/23 07:36:23;;;;;;;965.27;800.13;;;8.40;99.90;;;;;;5057741;28;20550;-81
2023/02/23 07:38:50;;;;;;;951.73;807.37;;;8.50;99.90;;;;;;5058248;28;20452;-81
2023/02/23 07:41:17;;;;;;;945.37;801.00;;;8.50;99.90;;;;;;5058620;28;20458;-80
2023/02/23 07:43:45;;;;;;;961.50;791.10;;;8.50;99.90;;;;;;5057718;28;20866;-81
2023/02/23 07:46:12;;;;;;;941.20;803.93;;;8.50;99.90;;;;;;5057611;28;20459;-81
2023/02/23 07:48:43;;;;;;;923.17;803.97;;;8.50;99.90;;;;;;5057866;28;20450;-81
2023/02/23 07:51:11;;;;;;;933.67;804.20;;;8.50;99.90;;;;;;5057856;28;20440;-81
2023/02/23 07:53:38;;;;;;;917.13;806.93;;;8.50;99.90;;;;;;5058062;28;20550;-81
2023/02/23 07:56:07;;;;;;;950.43;798.43;;;8.50;99.90;;;;;;5057333;28;20892;-80
2023/02/23 07:58:34;;;;;;;927.73;794.40;;;8.50;99.90;;;;;;5058575;28;20543;-82
2023/02/23 08:01:02;;;;;;;924.37;790.30;;;8.60;99.90;;;;;;5057574;28;20455;-81
2023/02/23 08:03:28;;;;;;;942.13;792.70;;;8.50;99.90;;;;;;5056114;28;20463;-80
2023/02/23 08:05:55;;;;;;;929.07;793.20;;;8.60;99.90;;;;;;5056148;28;20463;-80
2023/02/23 08:08:22;;;;;;;908.90;798.47;;;8.60;99.90;;;;;;5056580;28;20459;-81
2023/02/23 08:10:49;;;;;;;936.97;805.33;;;8.60;99.90;;;;;;5056582;28;20466;-81
2023/02/23 08:13:16;;;;;;;902.80;796.23;;;8.70;99.90;;;;;;5056351;28;20474;-79
2023/02/23 08:15:42;;;;;;;943.43;814.97;;;8.70;99.90;;;;;;5055690;28;20582;-82
2023/02/23 08:18:11;;;;;;;947.63;820.70;;;8.80;99.90;;;;;;5055768;28;20455;-80
2023/02/23 08:20:37;;;;;;;938.97;823.30;;;8.70;99.90;;;;;;5056117;28;20930;-79
2023/02/23 08:23:04;;;;;;;930.27;818.90;;;8.80;99.90;;;;;;5055552;28;20472;-81
2023/02/23 08:25:31;;;;;;;901.83;801.77;;;8.80;99.90;;;;;;5055880;28;20812;-81
2023/02/23 08:28:03;;;;;;;950.57;811.70;;;8.90;99.90;;;;;;5056016;28;20471;-80
2023/02/23 08:30:30;;;;;;;913.57;811.87;;;8.90;99.90;;;;;;5055929;28;20447;-81
2023/02/23 08:32:57;;;;;;;913.70;809.03;;;8.90;99.90;;;;;;5055766;28;20471;-79
2023/02/23 08:35:25;;;;;;;936.40;807.53;;;8.90;99.90;;;;;;5055149;28;20462;-81
2023/02/23 08:37:52;;;;;;;937.97;811.60;;;8.90;99.90;;;;;;5055674;28;20490;-83
2023/02/23 08:40:19;;;;;;;933.53;814.23;;;9.00;99.90;;;;;;5055789;28;20447;-81
2023/02/23 08:42:47;;;;;;;907.30;806.67;;;9.00;99.90;;;;;;5055650;28;20490;-84
2023/02/23 08:45:14;;;;;;;921.03;813.63;;;9.10;99.90;;;;;;5059607;28;20459;-82
2023/02/23 08:47:41;;;;;;;901.20;803.40;;;9.10;99.90;;;;;;5059406;28;20447;-82
2023/02/23 08:50:09;;;;;;;901.93;802.57;;;9.10;99.90;;;;;;5059727;28;20458;-80
2023/02/23 08:52:38;;;;;;;901.07;801.50;;;9.10;99.90;;;;;;5059453;28;20558;-80
2023/02/23 08:55:06;;;;;;;891.07;794.00;;;9.00;99.90;;;;;;5060359;28;20455;-82
2023/02/23 08:57:33;;;;;;;870.00;782.23;;;8.90;99.90;;;;;;5059371;28;20475;-81
2023/02/23 09:00:00;;;;;;;870.00;785.33;;;8.80;99.90;;;;;;5059300;28;20462;-81
2023/02/23 09:02:27;;;;;;;861.60;779.93;;;8.70;99.90;;;;;;5058940;28;21025;-79
2023/02/23 09:04:54;;;;;;;868.50;787.80;;;8.70;99.90;;;;;;5059604;28;20518;-81
2023/02/23 09:07:22;;;;;;;870.97;786.93;;;8.70;99.90;;;;;;5059550;28;20457;-84
2023/02/23 09:09:54;;;;;;;890.35;802.70;;;8.60;99.90;;;;;;5059006;28;20528;-82
2023/02/23 09:12:21;;;;;;;879.63;793.10;;;8.50;99.90;;;;;;5059274;28;20639;-81
2023/02/23 09:14:48;;;;;;;848.33;771.23;;;8.60;99.90;;;;;;5058709;28;20459;-80
2023/02/23 09:17:14;;;;;;;863.53;780.80;;;8.60;99.90;;;;;;5059210;28;20475;-81
2023/02/23 09:19:41;;;;;;;866.97;784.70;;;8.60;99.90;;;;;;5059028;28;20454;-83
2023/02/23 09:22:08;;;;;;;866.50;783.97;;;8.70;99.90;;;;;;5058914;28;20454;-81
2023/02/23 09:24:35;;;;;;;863.77;784.70;;;8.70;99.90;;;;;;5059416;28;20455;-81
2023/02/23 09:27:03;;;;;;;860.43;781.33;;;8.80;99.90;;;;;;5059038;28;20822;-81
2023/02/23 09:29:30;;;;;;;866.53;785.30;;;8.80;99.90;;;;;;5059472;28;20455;-82
2023/02/23 09:31:57;;;;;;;865.10;783.30;;;8.90;99.90;;;;;;5059297;28;20455;-81
2023/02/23 09:34:24;;;;;;;849.57;771.47;;;8.90;99.90;;;;;;5059361;28;20859;-83
2023/02/23 09:36:51;;;;;;;873.77;791.27;;;8.90;99.90;;;;;;5058970;28;20475;-82
2023/02/23 09:39:17;;;;;;;871.60;789.30;;;9.00;99.90;;;;;;5059756;28;20509;-81
2023/02/23 09:41:59;;;;;;;855.40;777.00;;;9.00;99.90;;;;;;5058787;28;20452;-82
2023/02/23 09:44:49;;;;;;;859.13;778.97;;;9.10;99.90;;;;;;5059230;28;20484;-81
2023/02/23 09:47:31;;;;;;;867.17;784.57;;;9.10;99.90;;;;;;5058351;28;20458;-81
2023/02/23 09:49:59;;;;;;;863.07;785.40;;;9.10;99.90;;;;;;5059269;28;20810;-81
2023/02/23 09:52:32;;;;;;;863.73;786.87;;;9.00;99.90;;;;;;5059080;28;20448;-82
2023/02/23 09:54:58;;;;;;;871.73;794.03;;;9.10;99.90;;;;;;5058635;28;20451;-81
2023/02/23 09:57:33;;;;;;;861.53;785.00;;;9.10;99.90;;;;;;5058211;28;20486;-83
2023/02/23 10:00:04;;;;;;;857.10;784.70;;;9.10;99.90;;;;;;5058271;28;20455;-81
2023/02/23 10:02:38;;;;;;;860.40;785.37;;;9.10;99.90;;;;;;5058324;28;20471;-81
2023/02/23 10:05:08;;;;;;;866.60;794.80;;;9.10;99.90;;;;;;5057956;28;20938;-81
2023/02/23 10:07:44;;;;;;;861.53;791.33;;;9.10;99.90;;;;;;5058416;28;20447;-81
2023/02/23 10:10:22;;;;;;;868.33;798.10;;;9.00;99.90;;;;;;5057832;28;20458;-80
2023/02/23 10:12:57;;;;;;;863.07;795.40;;;9.10;99.90;;;;;;5057841;28;20550;-80
2023/02/23 10:15:36;;;;;;;853.37;786.97;;;9.10;99.90;;;;;;5057581;28;20436;-81
2023/02/23 10:18:12;;;;;;;849.27;784.17;;;9.10;99.90;;;;;;5057540;28;20483;-81
2023/02/23 10:20:46;;;;;;;859.40;793.30;;;9.10;99.90;;;;;;5057274;28;20455;-81
2023/02/23 10:23:18;;;;;;;857.87;791.90;;;9.10;99.90;;;;;;5057091;28;20471;-81
2023/02/23 10:25:49;;;;;;;858.63;792.33;;;9.20;99.90;;;;;;5057324;28;20459;-81
2023/02/23 10:28:19;;;;;;;843.80;777.50;;;9.10;99.90;;;;;;5057551;28;20452;-81
2023/02/23 10:30:49;;;;;;;843.17;778.17;;;9.10;99.90;;;;;;5057208;28;20461;-81
2023/02/23 10:33:22;;;;;;;835.30;773.23;;;9.10;99.90;;;;;;5057278;28;20467;-81
2023/02/23 10:35:52;;;;;;;822.80;761.87;;;9.00;99.90;;;;;;5056727;28;20459;-81
2023/02/23 10:38:19;;;;;;;828.30;768.80;;;9.00;99.90;;;;;;5056993;28;20471;-81
2023/02/23 10:40:51;;;;;;;831.23;772.07;;;9.00;99.90;;;;;;5057113;28;20455;-81
2023/02/23 10:43:17;;;;;;;829.00;771.30;;;8.90;99.90;;;;;;5056671;28;20557;-82
2023/02/23 10:45:48;;;;;;;807.50;753.33;;;8.90;99.90;;;;;;5056766;28;20977;-81
2023/02/23 10:48:19;;;;;;;788.57;737.30;;;8.80;99.90;;;;;;5057138;28;20462;-81
2023/02/23 10:50:48;;;;;;;777.40;725.73;;;8.80;99.90;;;;;;5056882;28;20462;-81
2023/02/23 10:53:19;;;;;;;783.40;729.83;;;8.90;99.90;;;;;;5056052;28;20471;-82
2023/02/23 10:55:47;;;;;;;751.67;702.17;;;8.90;99.90;;;;;;5056808;28;20463;-80
2023/02/23 10:58:19;;;;;;;752.40;702.27;;;8.90;99.90;;;;;;5056557;28;20475;-81
2023/02/23 11:00:58;;;;;;;737.27;688.17;;;8.90;99.90;;;;;;5056317;28;20451;-81
2023/02/23 11:03:32;;;;;;;719.50;671.60;;;9.10;99.90;;;;;;5055862;28;20482;-81
2023/02/23 11:05:59;;;;;;;674.57;630.03;;;9.10;99.90;;;;;;5055747;28;20462;-82
2023/02/23 11:08:30;;;;;;;676.00;635.00;;;9.10;99.90;;;;;;5056524;28;20455;-81
2023/02/23 11:11:24;;;;;;;615.67;579.67;;;9.10;99.90;;;;;;5056586;28;20435;-82
2023/02/23 11:13:54;;;;;;;637.90;598.63;;;9.20;99.90;;;;;;5057043;28;20471;-80
2023/02/23 11:16:25;;;;;;;645.90;610.50;;;9.10;99.90;;;;;;5056205;28;20538;-81
2023/02/23 11:18:54;;;;;;;677.43;636.73;;;9.10;99.90;;;;;;5055185;28;20475;-81
2023/02/23 11:21:24;;;;;;;671.97;632.77;;;9.20;99.90;;;;;;5055720;28;20501;-81
2023/02/23 11:23:53;;;;;;;652.00;612.67;;;9.20;99.90;;;;;;5055721;28;20848;-83
2023/02/23 11:26:29;;;;;;;657.03;616.00;;;9.30;99.90;;;;;;5055468;28;20447;-80
2023/02/23 11:28:59;;;;;;;638.13;598.27;;;9.50;99.90;;;;;;5056266;28;20942;-81
2023/02/23 11:31:33;;;;;;;665.80;623.60;;;9.40;99.90;;;;;;5056165;28;20985;-81
2023/02/23 11:34:02;;;;;;;628.27;589.63;;;9.50;99.90;;;;;;5055770;28;20889;-81
2023/02/23 11:36:31;;;;;;;693.40;651.30;;;9.40;99.90;;;;;;5056064;28;20458;-81
2023/02/23 11:39:20;;;;;;;661.30;623.43;;;9.40;99.90;;;;;;5056382;28;20467;-82
2023/02/23 11:42:03;;;;;;;623.63;589.57;;;9.30;99.90;;;;;;5055051;28;20487;-81
2023/02/23 11:44:30;;;;;;;598.53;565.80;;;9.30;99.90;;;;;;5055735;28;20471;-79
2023/02/23 11:47:00;;;;;;;588.67;555.57;;;9.30;99.90;;;;;;5055386;28;20613;-81
2023/02/23 11:49:32;;;;;;;633.07;600.57;;;9.30;99.90;;;;;;5055643;28;20447;-81
2023/02/23 11:51:59;;;;;;;635.53;601.13;;;9.40;99.90;;;;;;5056400;28;20834;-81
2023/02/23 11:54:29;;;;;;;541.40;513.53;;;9.50;99.90;;;;;;5056212;28;20467;-80
2023/02/23 11:56:56;;;;;;;513.83;488.30;;;9.50;99.90;;;;;;5055904;28;20459;-81
2023/02/23 11:59:29;;;;;;;434.17;411.83;;;9.50;99.90;;;;;;5056613;28;20451;-81
2023/02/23 12:02:02;;;;;;;503.23;477.47;;;9.50;99.90;;;;;;5056280;28;20446;-81
2023/02/23 12:04:33;;;;;;;550.40;522.03;;;9.60;99.90;;;;;;5056857;28;20479;-81
2023/02/23 12:07:20;;;;;;;592.30;561.60;;;9.60;99.90;;;;;;5055662;28;20455;-81
2023/02/23 12:09:52;;;;;;;495.63;472.17;;;9.70;99.90;;;;;;5056423;28;20431;-81
2023/02/23 12:12:23;;;;;;;544.57;517.00;;;9.70;99.90;;;;;;5055522;28;20454;-81
2023/02/23 12:14:54;;;;;;;572.63;544.63;;;9.60;99.90;;;;;;5056552;28;20455;-81
2023/02/23 12:17:26;;;;;;;526.93;500.80;;;9.60;99.90;;;;;;5055764;28;20481;-81
2023/02/23 12:19:59;;;;;;;493.57;469.73;;;9.50;99.90;;;;;;5059825;28;20466;-81
2023/02/23 12:22:29;;;;;;;445.07;424.13;;;9.50;99.90;;;;;;5059970;28;20809;-81
2023/02/23 12:25:01;;;;;;;478.97;456.83;;;9.30;99.90;;;;;;5059998;28;20462;-82
2023/02/23 12:27:34;;;;;;;498.23;474.27;;;9.20;99.90;;;;;;5059738;28;20478;-81
2023/02/23 12:30:09;;;;;;;456.40;434.77;;;9.20;99.90;;;;;;5060431;28;20436;-81
2023/02/23 12:32:46;;;;;;;431.47;414.50;;;9.00;99.90;;;;;;5059456;28;20904;-81
2023/02/23 12:35:18;;;;;;;364.43;350.20;;;8.90;99.90;;;;;;5058628;28;20447;-80
2023/02/23 12:37:49;;;;;;;317.93;306.07;;;8.80;99.90;;;;;;5059530;28;20471;-81
2023/02/23 12:40:21;;;;;;;306.87;294.67;;;8.80;99.90;;;;;;5058921;28;20458;-81
2023/02/23 12:42:56;;;;;;;281.90;270.00;;;8.80;99.90;;;;;;5059018;28;20482;-80
2023/02/23 12:45:32;;;;;;;252.73;242.23;;;8.90;99.90;;;;;;5058939;28;20447;-81
2023/02/23 12:48:08;;;;;;;172.30;164.27;;;9.00;99.90;;;;;;5059223;28;20454;-82
2023/02/23 12:50:42;;;;;;;123.30;116.70;;;9.00;99.90;;;;;;5059275;28;20451;-82
2023/02/23 12:53:18;;;;;;;135.67;128.43;;;9.10;99.90;;;;;;5058837;28;20505;-80
2023/02/23 12:56:06;;;;;;;106.30;100.40;;;9.20;99.90;;;;;;5057854;28;20455;-80
2023/02/23 12:58:41;;;;;;;108.20;100.50;;;9.30;99.90;;;;;;5058497;28;20482;-80
2023/02/23 13:01:12;;;;;;;101.73;95.40;;;9.40;99.90;;;;;;5058942;28;20454;-80
2023/02/23 13:04:16;;;;;;;97.80;90.97;;;9.50;99.90;;;;;;5058415;28;20479;-80
2023/02/23 13:06:55;;;;;;;129.33;121.97;;;9.50;99.90;;;;;;5058400;28;20451;-81
2023/02/23 13:09:32;;;;;;;117.23;111.57;;;9.50;99.90;;;;;;5059878;28;20454;-81
2023/02/23 13:12:28;;;;;;;89.63;82.27;;;9.60;99.90;;;;;;5059000;28;20435;-81
2023/02/23 13:15:02;;;;;;;107.30;101.50;;;9.70;99.90;;;;;;5058676;28;20549;-80
2023/02/23 13:17:39;;;;;;;74.70;69.77;;;9.70;99.90;;;;;;5058703;28;20475;-81
2023/02/23 13:20:17;;;;;;;63.87;59.07;;;9.60;99.90;;;;;;5059598;28;20538;-82
2023/02/23 13:22:50;;;;;;;63.23;58.23;;;9.60;99.90;;;;;;5058868;28;20478;-82
2023/02/23 13:25:28;;;;;;;45.60;41.67;;;9.70;99.90;;;;;;5058134;28;20455;-81
2023/02/23 13:27:59;;;;;;;60.70;55.50;;;9.70;99.90;;;;;;5058295;28;20830;-80
2023/02/23 13:30:31;;;;;;;56.90;51.63;;;9.80;99.90;;;;;;5057418;28;20451;-79
2023/02/23 13:33:01;;;;;;;51.93;47.87;;;9.90;99.90;;;;;;5058509;28;20507;-80
2023/02/23 13:35:35;;;;;;;49.60;45.50;;;10.00;99.90;;;;;;5059274;28;20451;-81
2023/02/23 13:38:11;;;;;;;56.13;51.47;;;10.30;99.90;;;;;;5059165;28;20471;-81
2023/02/23 13:40:45;;;;;;;64.70;54.07;;;10.40;99.90;;;;;;5058940;28;20454;-80
2023/02/23 13:43:21;;;;;;;40.83;37.10;;;10.50;99.90;;;;;;5058393;28;20479;-81
2023/02/23 13:46:02;;;;;;;33.90;30.00;;;10.60;99.90;;;;;;5058276;28;20473;-81
2023/02/23 13:48:40;;;;;;;34.37;28.23;;;10.70;99.90;;;;;;5058896;28;20798;-81
2023/02/23 13:51:17;;;;;;;29.83;25.33;;;10.80;99.90;;;;;;5058719;28;20941;-82
2023/02/23 13:53:45;;;;;;;26.80;15.77;;;10.70;99.90;;;;;;5058991;28;20475;-81